GBMOF EGBJ-EGHP
Flight info
| Callsign | GBMOF |
|---|---|
| Flight time | 0h 33m |
| Altitude | 3000 |
| Route | DCT |
| Aircraft | C206/L-DOV/C |
Departure
| Time | 2026-05-06 12:21 |
|---|---|
| Airport | Gloucestershire Airport (EGBJ) |
Arrival
| Time | 2026-05-06 12:55 |
|---|---|
| Airport | Popham Airfield (EGHP) |
| Time | Latitude | Longitude | Altitude | Speed | Heading |
|---|---|---|---|---|---|
| 2026-05-06 12:13 | 51.89294 | -2.15862 | 94 ft | 0 kts | 78° |
| 2026-05-06 12:15 | 51.89299 | -2.15847 | 95 ft | 4 kts | 52° |
| 2026-05-06 12:16 | 51.89350 | -2.15849 | 94 ft | 8 kts | 353° |
| 2026-05-06 12:16 | 51.89380 | -2.15931 | 92 ft | 11 kts | 264° |
| 2026-05-06 12:16 | 51.89332 | -2.16031 | 90 ft | 14 kts | 215° |
| 2026-05-06 12:16 | 51.89240 | -2.16131 | 90 ft | 16 kts | 218° |
| 2026-05-06 12:17 | 51.89143 | -2.16243 | 90 ft | 17 kts | 214° |
| 2026-05-06 12:17 | 51.89049 | -2.16355 | 89 ft | 15 kts | 237° |
| 2026-05-06 12:17 | 51.89019 | -2.16501 | 87 ft | 11 kts | 222° |
| 2026-05-06 12:17 | 51.88939 | -2.16500 | 87 ft | 14 kts | 178° |
| 2026-05-06 12:18 | 51.88865 | -2.16610 | 85 ft | 15 kts | 248° |
| 2026-05-06 12:18 | 51.88857 | -2.16700 | 83 ft | 0 kts | 303° |
| 2026-05-06 12:20 | 51.88858 | -2.16702 | 83 ft | 2 kts | 292° |
| 2026-05-06 12:20 | 51.88878 | -2.16790 | 81 ft | 13 kts | 6° |
| 2026-05-06 12:20 | 51.88960 | -2.16705 | 81 ft | 36 kts | 34° |
| 2026-05-06 12:20 | 51.89323 | -2.16302 | 177 ft | 77 kts | 35° |
| 2026-05-06 12:21 | 51.89785 | -2.15784 | 393 ft | 84 kts | 34° |
| 2026-05-06 12:21 | 51.90260 | -2.15254 | 627 ft | 80 kts | 32° |
| 2026-05-06 12:21 | 51.90618 | -2.14902 | 775 ft | 81 kts | 13° |
| 2026-05-06 12:21 | 51.91119 | -2.15325 | 912 ft | 93 kts | 301° |
| 2026-05-06 12:22 | 51.91077 | -2.16408 | 955 ft | 109 kts | 235° |
| 2026-05-06 12:22 | 51.90472 | -2.17231 | 980 ft | 114 kts | 218° |
| 2026-05-06 12:22 | 51.89818 | -2.18018 | 982 ft | 120 kts | 216° |
| 2026-05-06 12:22 | 51.89111 | -2.18850 | 989 ft | 122 kts | 214° |
| 2026-05-06 12:23 | 51.88393 | -2.19627 | 979 ft | 125 kts | 204° |
| 2026-05-06 12:23 | 51.87559 | -2.19863 | 973 ft | 123 kts | 167° |
| 2026-05-06 12:23 | 51.86820 | -2.19247 | 973 ft | 119 kts | 139° |
| 2026-05-06 12:23 | 51.86180 | -2.18404 | 982 ft | 118 kts | 134° |
| 2026-05-06 12:24 | 51.85557 | -2.17520 | 968 ft | 119 kts | 132° |
| 2026-05-06 12:24 | 51.84956 | -2.16618 | 1009 ft | 116 kts | 133° |
| 2026-05-06 12:24 | 51.84355 | -2.15754 | 1131 ft | 114 kts | 133° |
| 2026-05-06 12:24 | 51.83761 | -2.14901 | 1289 ft | 111 kts | 132° |
| 2026-05-06 12:25 | 51.83188 | -2.14086 | 1449 ft | 109 kts | 133° |
| 2026-05-06 12:25 | 51.82618 | -2.13268 | 1583 ft | 110 kts | 131° |
| 2026-05-06 12:25 | 51.82006 | -2.12381 | 1703 ft | 115 kts | 134° |
| 2026-05-06 12:25 | 51.81392 | -2.11509 | 1830 ft | 115 kts | 131° |
| 2026-05-06 12:26 | 51.80776 | -2.10631 | 1938 ft | 115 kts | 133° |
| 2026-05-06 12:26 | 51.80131 | -2.09742 | 1986 ft | 119 kts | 133° |
| 2026-05-06 12:26 | 51.79500 | -2.08792 | 1954 ft | 121 kts | 129° |
| 2026-05-06 12:26 | 51.78877 | -2.07837 | 1947 ft | 123 kts | 133° |
| 2026-05-06 12:27 | 51.78231 | -2.06934 | 1946 ft | 122 kts | 133° |
| 2026-05-06 12:27 | 51.77575 | -2.06023 | 1946 ft | 122 kts | 133° |
| 2026-05-06 12:27 | 51.76910 | -2.05102 | 1947 ft | 121 kts | 133° |
| 2026-05-06 12:27 | 51.76244 | -2.04178 | 1950 ft | 122 kts | 133° |
| 2026-05-06 12:28 | 51.75584 | -2.03263 | 1948 ft | 122 kts | 133° |
| 2026-05-06 12:28 | 51.74905 | -2.02324 | 1946 ft | 122 kts | 133° |
| 2026-05-06 12:28 | 51.74226 | -2.01386 | 1950 ft | 122 kts | 133° |
| 2026-05-06 12:28 | 51.73555 | -2.00459 | 1946 ft | 122 kts | 133° |
| 2026-05-06 12:29 | 51.72876 | -1.99523 | 1943 ft | 123 kts | 133° |
| 2026-05-06 12:29 | 51.72195 | -1.98584 | 1944 ft | 123 kts | 133° |
| 2026-05-06 12:29 | 51.71516 | -1.97645 | 1943 ft | 123 kts | 133° |
| 2026-05-06 12:29 | 51.70853 | -1.96730 | 1943 ft | 124 kts | 133° |
| 2026-05-06 12:30 | 51.70191 | -1.95814 | 1943 ft | 124 kts | 133° |
| 2026-05-06 12:30 | 51.69500 | -1.94855 | 1944 ft | 124 kts | 133° |
| 2026-05-06 12:30 | 51.68805 | -1.93891 | 1937 ft | 124 kts | 133° |
| 2026-05-06 12:30 | 51.68148 | -1.92982 | 1945 ft | 124 kts | 133° |
| 2026-05-06 12:31 | 51.67479 | -1.92056 | 1942 ft | 124 kts | 133° |
| 2026-05-06 12:31 | 51.66811 | -1.91133 | 1942 ft | 124 kts | 133° |
| 2026-05-06 12:31 | 51.66148 | -1.90216 | 1941 ft | 124 kts | 133° |
| 2026-05-06 12:31 | 51.65493 | -1.89308 | 1939 ft | 125 kts | 133° |
| 2026-05-06 12:32 | 51.64833 | -1.88397 | 1941 ft | 124 kts | 132° |
| 2026-05-06 12:32 | 51.64300 | -1.87310 | 1943 ft | 121 kts | 117° |
| 2026-05-06 12:32 | 51.63846 | -1.86176 | 1942 ft | 120 kts | 115° |
| 2026-05-06 12:32 | 51.63408 | -1.85007 | 1939 ft | 120 kts | 114° |
| 2026-05-06 12:33 | 51.62981 | -1.83861 | 1941 ft | 120 kts | 114° |
| 2026-05-06 12:33 | 51.62547 | -1.82697 | 1942 ft | 120 kts | 114° |
| 2026-05-06 12:33 | 51.62090 | -1.81469 | 1941 ft | 120 kts | 114° |
| 2026-05-06 12:33 | 51.61648 | -1.80275 | 1944 ft | 120 kts | 114° |
| 2026-05-06 12:34 | 51.61212 | -1.79103 | 1945 ft | 121 kts | 114° |
| 2026-05-06 12:34 | 51.60771 | -1.77912 | 1942 ft | 121 kts | 114° |
| 2026-05-06 12:34 | 51.60338 | -1.76747 | 1941 ft | 121 kts | 114° |
| 2026-05-06 12:34 | 51.59903 | -1.75578 | 1939 ft | 121 kts | 114° |
| 2026-05-06 12:35 | 51.59346 | -1.74548 | 1939 ft | 124 kts | 133° |
| 2026-05-06 12:35 | 51.58673 | -1.73671 | 1938 ft | 124 kts | 135° |
| 2026-05-06 12:35 | 51.58001 | -1.72793 | 1941 ft | 124 kts | 135° |
| 2026-05-06 12:35 | 51.57338 | -1.71923 | 1938 ft | 125 kts | 135° |
| 2026-05-06 12:36 | 51.56659 | -1.71032 | 1938 ft | 125 kts | 135° |
| 2026-05-06 12:36 | 51.55987 | -1.70155 | 1939 ft | 125 kts | 136° |
| 2026-05-06 12:36 | 51.55306 | -1.69292 | 1939 ft | 125 kts | 135° |
| 2026-05-06 12:36 | 51.54616 | -1.68419 | 1945 ft | 125 kts | 136° |
| 2026-05-06 12:37 | 51.53931 | -1.67551 | 1944 ft | 126 kts | 136° |
| 2026-05-06 12:37 | 51.53242 | -1.66680 | 1937 ft | 127 kts | 136° |
| 2026-05-06 12:37 | 51.52548 | -1.65803 | 1920 ft | 126 kts | 136° |
| 2026-05-06 12:37 | 51.51862 | -1.64938 | 1916 ft | 124 kts | 136° |
| 2026-05-06 12:38 | 51.51183 | -1.64087 | 1922 ft | 124 kts | 136° |
| 2026-05-06 12:38 | 51.50501 | -1.63233 | 1935 ft | 124 kts | 136° |
| 2026-05-06 12:38 | 51.49827 | -1.62385 | 1925 ft | 125 kts | 136° |
| 2026-05-06 12:38 | 51.49139 | -1.61518 | 1926 ft | 124 kts | 135° |
| 2026-05-06 12:39 | 51.48459 | -1.60668 | 1929 ft | 124 kts | 135° |
| 2026-05-06 12:39 | 51.47780 | -1.59817 | 1926 ft | 124 kts | 136° |
| 2026-05-06 12:39 | 51.47102 | -1.58971 | 1922 ft | 124 kts | 136° |
| 2026-05-06 12:39 | 51.46428 | -1.58128 | 1929 ft | 123 kts | 135° |
| 2026-05-06 12:40 | 51.45750 | -1.57282 | 1931 ft | 124 kts | 135° |
| 2026-05-06 12:40 | 51.45067 | -1.56426 | 1931 ft | 124 kts | 136° |
| 2026-05-06 12:40 | 51.44383 | -1.55568 | 1927 ft | 125 kts | 136° |
| 2026-05-06 12:40 | 51.43704 | -1.54717 | 1926 ft | 124 kts | 135° |
| 2026-05-06 12:41 | 51.43018 | -1.53859 | 1928 ft | 124 kts | 136° |
| 2026-05-06 12:41 | 51.42336 | -1.53009 | 1936 ft | 125 kts | 136° |
| 2026-05-06 12:41 | 51.41649 | -1.52154 | 1928 ft | 125 kts | 136° |
| 2026-05-06 12:41 | 51.40957 | -1.51290 | 1929 ft | 126 kts | 135° |
| 2026-05-06 12:42 | 51.40270 | -1.50434 | 1928 ft | 126 kts | 136° |
| 2026-05-06 12:42 | 51.39579 | -1.49571 | 1927 ft | 125 kts | 136° |
| 2026-05-06 12:42 | 51.38887 | -1.48707 | 1928 ft | 125 kts | 136° |
| 2026-05-06 12:42 | 51.38193 | -1.47842 | 1960 ft | 123 kts | 136° |
| 2026-05-06 12:43 | 51.37526 | -1.47014 | 2077 ft | 121 kts | 136° |
| 2026-05-06 12:43 | 51.36862 | -1.46198 | 2203 ft | 119 kts | 135° |
| 2026-05-06 12:43 | 51.36202 | -1.45391 | 2328 ft | 119 kts | 136° |
| 2026-05-06 12:43 | 51.35551 | -1.44596 | 2448 ft | 119 kts | 135° |
| 2026-05-06 12:44 | 51.34874 | -1.43765 | 2485 ft | 124 kts | 136° |
| 2026-05-06 12:44 | 51.34166 | -1.42886 | 2490 ft | 128 kts | 136° |
| 2026-05-06 12:44 | 51.33461 | -1.42004 | 2484 ft | 130 kts | 136° |
| 2026-05-06 12:44 | 51.32748 | -1.41112 | 2475 ft | 130 kts | 135° |
| 2026-05-06 12:45 | 51.32031 | -1.40215 | 2478 ft | 130 kts | 136° |
| 2026-05-06 12:45 | 51.31315 | -1.39321 | 2474 ft | 130 kts | 136° |
| 2026-05-06 12:45 | 51.29837 | -1.37634 | 2478 ft | 131 kts | 139° |
| 2026-05-06 12:46 | 51.29094 | -1.36797 | 2483 ft | 131 kts | 139° |
| 2026-05-06 12:46 | 51.28350 | -1.35957 | 2479 ft | 132 kts | 139° |
| 2026-05-06 12:46 | 51.27597 | -1.35107 | 2475 ft | 132 kts | 139° |
| 2026-05-06 12:46 | 51.26848 | -1.34258 | 2475 ft | 132 kts | 139° |
| 2026-05-06 12:47 | 51.26103 | -1.33414 | 2474 ft | 132 kts | 139° |
| 2026-05-06 12:47 | 51.25354 | -1.32568 | 2475 ft | 130 kts | 140° |
| 2026-05-06 12:47 | 51.24631 | -1.31753 | 2470 ft | 124 kts | 140° |
| 2026-05-06 12:47 | 51.23935 | -1.30970 | 2471 ft | 120 kts | 139° |
| 2026-05-06 12:48 | 51.23243 | -1.30200 | 2468 ft | 117 kts | 140° |
| 2026-05-06 12:48 | 51.22582 | -1.29466 | 2473 ft | 116 kts | 139° |
| 2026-05-06 12:48 | 51.21904 | -1.28716 | 2473 ft | 115 kts | 140° |
| 2026-05-06 12:48 | 51.21256 | -1.28001 | 2473 ft | 112 kts | 140° |
| 2026-05-06 12:49 | 51.20622 | -1.27304 | 2474 ft | 109 kts | 139° |
| 2026-05-06 12:49 | 51.19996 | -1.26622 | 2471 ft | 108 kts | 140° |
| 2026-05-06 12:49 | 51.19403 | -1.25921 | 2436 ft | 105 kts | 134° |
| 2026-05-06 12:49 | 51.18917 | -1.25170 | 2450 ft | 91 kts | 121° |
| 2026-05-06 12:50 | 51.18578 | -1.24354 | 2404 ft | 86 kts | 110° |
| 2026-05-06 12:50 | 51.18367 | -1.23493 | 2355 ft | 79 kts | 89° |
| 2026-05-06 12:50 | 51.18385 | -1.22654 | 2296 ft | 74 kts | 66° |
| 2026-05-06 12:50 | 51.18654 | -1.21959 | 2183 ft | 73 kts | 39° |
| 2026-05-06 12:51 | 51.19097 | -1.21614 | 2107 ft | 73 kts | 12° |
| 2026-05-06 12:51 | 51.19603 | -1.21657 | 2008 ft | 74 kts | 351° |
| 2026-05-06 12:51 | 51.20026 | -1.22154 | 1934 ft | 77 kts | 311° |
| 2026-05-06 12:51 | 51.20283 | -1.22976 | 1694 ft | 85 kts | 307° |
| 2026-05-06 12:52 | 51.20533 | -1.23804 | 1467 ft | 83 kts | 303° |
| 2026-05-06 12:52 | 51.20753 | -1.24625 | 1370 ft | 78 kts | 298° |
| 2026-05-06 12:52 | 51.20644 | -1.25466 | 1387 ft | 89 kts | 226° |
| 2026-05-06 12:52 | 51.20115 | -1.26031 | 1329 ft | 92 kts | 213° |
| 2026-05-06 12:53 | 51.19553 | -1.26527 | 1301 ft | 90 kts | 211° |
| 2026-05-06 12:53 | 51.18956 | -1.26656 | 1236 ft | 85 kts | 152° |
| 2026-05-06 12:53 | 51.18591 | -1.26021 | 1197 ft | 76 kts | 115° |
| 2026-05-06 12:53 | 51.18333 | -1.25265 | 1174 ft | 78 kts | 94° |
| 2026-05-06 12:54 | 51.18426 | -1.24511 | 1032 ft | 63 kts | 63° |
| 2026-05-06 12:54 | 51.18694 | -1.23985 | 912 ft | 64 kts | 28° |
| 2026-05-06 12:54 | 51.19089 | -1.23639 | 749 ft | 64 kts | 36° |
| 2026-05-06 12:54 | 51.19481 | -1.23260 | 536 ft | 63 kts | 30° |
| 2026-05-06 12:55 | 51.19777 | -1.22989 | 512 ft | 29 kts | 34° |
| 2026-05-06 12:55 | 51.19859 | -1.22959 | 508 ft | 6 kts | 216° |
| 2026-05-06 12:55 | 51.19779 | -1.23030 | 512 ft | 19 kts | 212° |
| 2026-05-06 12:55 | 51.19659 | -1.23152 | 520 ft | 20 kts | 211° |
| 2026-05-06 12:56 | 51.19534 | -1.23275 | 524 ft | 21 kts | 211° |
| 2026-05-06 12:56 | 51.19418 | -1.23435 | 527 ft | 22 kts | 233° |
| 2026-05-06 12:56 | 51.19365 | -1.23631 | 529 ft | 17 kts | 259° |
| 2026-05-06 12:56 | 51.19355 | -1.23771 | 531 ft | 5 kts | 323° |
| 2026-05-06 12:57 | 51.19359 | -1.23797 | 531 ft | 0 kts | 170° |